createdAt,value
2023-04-18T00:01:58.449Z,99389.00
2023-04-18T00:04:26.501Z,99387.00
2023-04-18T00:06:54.676Z,99396.31
2023-04-18T00:09:24.661Z,99391.88
2023-04-18T00:11:52.829Z,99390.78
2023-04-18T00:14:21.246Z,99386.91
2023-04-18T00:16:51.694Z,99386.47
2023-04-18T00:19:20.195Z,99394.25
2023-04-18T00:21:49.536Z,99395.09
2023-04-18T00:24:17.755Z,99397.88
2023-04-18T00:26:45.683Z,99385.47
2023-04-18T00:29:13.637Z,99389.09
2023-04-18T00:31:41.581Z,99384.94
2023-04-18T00:34:10.927Z,99394.00
2023-04-18T00:36:38.856Z,99396.06
2023-04-18T00:39:06.875Z,99391.03
2023-04-18T00:41:34.866Z,99392.34
2023-04-18T00:44:02.795Z,99391.97
2023-04-18T00:46:30.835Z,99388.34
2023-04-18T00:48:58.815Z,99392.34
2023-04-18T00:51:28.575Z,99397.72
2023-04-18T00:53:57.140Z,99391.97
2023-04-18T00:56:25.970Z,99392.03
2023-04-18T00:58:53.974Z,99393.28
2023-04-18T01:01:22.197Z,99397.53
2023-04-18T01:03:50.373Z,99387.22
2023-04-18T01:06:18.420Z,99387.94
2023-04-18T01:08:47.753Z,99385.88
2023-04-18T01:11:15.702Z,99398.50
2023-04-18T01:13:43.674Z,99393.63
2023-04-18T01:16:11.701Z,99393.88
2023-04-18T01:18:40.276Z,99393.06
2023-04-18T01:21:08.377Z,99398.44
2023-04-18T01:23:36.323Z,99391.09
2023-04-18T01:26:05.830Z,99397.28
2023-04-18T01:28:37.096Z,99397.94
2023-04-18T01:31:05.121Z,99392.38
2023-04-18T01:33:33.075Z,99388.22
2023-04-18T01:36:00.993Z,99388.22
2023-04-18T01:38:28.992Z,99384.50
2023-04-18T01:40:56.973Z,99389.03
2023-04-18T01:43:26.308Z,99380.69
2023-04-18T01:45:54.247Z,99378.22
2023-04-18T01:48:22.205Z,99378.13
2023-04-18T01:50:50.138Z,99378.06
2023-04-18T01:53:18.670Z,99376.97
2023-04-18T01:55:46.611Z,99378.53
2023-04-18T01:58:15.771Z,99377.78
2023-04-18T02:00:45.124Z,99374.38
2023-04-18T02:03:13.288Z,99377.53
2023-04-18T02:05:41.314Z,99378.28
2023-04-18T02:08:09.368Z,99385.13
2023-04-18T02:10:37.284Z,99380.75
2023-04-18T02:13:06.732Z,99389.56
2023-04-18T02:15:34.656Z,99386.69
2023-04-18T02:18:04.028Z,99383.09
2023-04-18T02:20:33.631Z,99388.94
2023-04-18T02:23:01.735Z,99391.03
2023-04-18T02:25:29.650Z,99395.41
2023-04-18T02:27:57.667Z,99387.16
2023-04-18T02:30:25.652Z,99385.31
2023-04-18T02:32:53.919Z,99383.63
2023-04-18T02:35:23.439Z,99391.03
2023-04-18T02:37:51.370Z,99388.09
2023-04-18T02:40:19.395Z,99395.19
2023-04-18T02:42:47.362Z,99399.38
2023-04-18T02:45:15.368Z,99403.16
2023-04-18T02:47:54.792Z,99402.53
2023-04-18T02:50:25.582Z,99402.06
2023-04-18T02:52:53.622Z,99401.97
2023-04-18T02:55:22.213Z,99402.31
2023-04-18T02:57:50.159Z,99410.28
2023-04-18T03:00:18.389Z,99397.88
2023-04-18T03:02:46.461Z,99407.59
2023-04-18T03:05:14.485Z,99407.78
2023-04-18T03:07:43.767Z,99411.88
2023-04-18T03:10:12.082Z,99412.88
2023-04-18T03:12:40.056Z,99417.53
2023-04-18T03:15:09.076Z,99424.19
2023-04-18T03:17:37.027Z,99416.44
2023-04-18T03:20:05.730Z,99414.75
2023-04-18T03:22:33.697Z,99423.06
2023-04-18T03:25:03.059Z,99430.88
2023-04-18T03:27:30.984Z,99425.50
2023-04-18T03:29:58.911Z,99428.09
2023-04-18T03:32:27.025Z,99432.16
2023-04-18T03:34:55.050Z,99438.28
2023-04-18T03:37:22.978Z,99430.50
2023-04-18T03:39:50.900Z,99436.31
2023-04-18T03:42:20.227Z,99443.00
2023-04-18T03:44:48.183Z,99447.28
2023-04-18T03:47:16.950Z,99444.69
2023-04-18T03:49:45.038Z,99457.38
2023-04-18T03:52:13.273Z,99448.84
2023-04-18T03:54:41.221Z,99455.53
2023-04-18T03:57:09.142Z,99455.53
2023-04-18T03:59:38.500Z,99455.31
2023-04-18T04:02:06.498Z,99461.38
2023-04-18T04:04:34.544Z,99462.03
2023-04-18T04:07:02.626Z,99451.00
2023-04-18T04:09:30.623Z,99457.69
2023-04-18T04:11:58.595Z,99460.09
2023-04-18T04:14:26.510Z,99463.91
2023-04-18T04:16:55.821Z,99457.41
2023-04-18T04:19:23.770Z,99459.59
2023-04-18T04:21:51.826Z,99456.16
2023-04-18T04:24:20.561Z,99458.44
2023-04-18T04:26:48.805Z,99459.91
2023-04-18T04:29:16.930Z,99454.56
2023-04-18T04:31:45.143Z,99459.44
2023-04-18T04:34:14.973Z,99457.91
2023-04-18T04:36:43.184Z,99457.47
2023-04-18T04:39:11.819Z,99460.09
2023-04-18T04:41:40.387Z,99453.97
2023-04-18T04:44:09.632Z,99453.44
2023-04-18T04:46:39.456Z,99454.66
2023-04-18T04:49:07.424Z,99455.94
2023-04-18T04:51:36.985Z,99453.88
2023-04-18T04:54:05.138Z,99457.16
2023-04-18T04:56:33.164Z,99457.16
2023-04-18T04:59:01.937Z,99456.56
2023-04-18T05:01:29.898Z,99466.13
2023-04-18T05:03:58.291Z,99454.72
2023-04-18T05:06:26.535Z,99464.44
2023-04-18T05:08:56.811Z,99463.81
2023-04-18T05:11:24.791Z,99467.59
2023-04-18T05:13:52.714Z,99464.28
2023-04-18T05:16:20.911Z,99460.53
2023-04-18T05:18:48.834Z,99466.75
2023-04-18T05:21:16.809Z,99468.22
2023-04-18T05:23:44.764Z,99466.56
2023-04-18T05:26:14.097Z,99476.34
2023-04-18T05:28:42.515Z,99472.59
2023-04-18T05:31:10.674Z,99470.47
2023-04-18T05:33:38.681Z,99467.56
2023-04-18T05:36:07.665Z,99474.66
2023-04-18T05:38:35.840Z,99475.91
2023-04-18T05:41:03.813Z,99489.66
2023-04-18T05:43:33.158Z,99481.75
2023-04-18T05:46:01.129Z,99487.13
2023-04-18T05:48:29.055Z,99491.94
2023-04-18T05:50:57.871Z,99495.44
2023-04-18T05:53:25.811Z,99491.28
2023-04-18T05:55:53.733Z,99500.22
2023-04-18T05:58:21.663Z,99490.91
2023-04-18T06:00:51.071Z,99492.34
2023-04-18T06:03:19.153Z,99497.94
2023-04-18T06:05:47.380Z,99499.59
2023-04-18T06:08:15.501Z,99500.03
2023-04-18T06:10:43.429Z,99500.22
2023-04-18T06:13:11.334Z,99493.75
2023-04-18T06:15:39.300Z,99487.72
2023-04-18T06:18:08.719Z,99491.72
2023-04-18T06:20:36.645Z,99498.56
2023-04-18T06:23:04.630Z,99501.69
2023-04-18T06:25:32.601Z,99497.53
2023-04-18T06:28:00.568Z,99499.63
2023-04-18T06:30:28.497Z,99493.97
2023-04-18T06:32:56.443Z,99500.38
2023-04-18T06:35:26.698Z,99495.81
2023-04-18T06:37:54.835Z,99510.41
2023-04-18T06:40:22.769Z,99509.19
2023-04-18T06:42:50.710Z,99514.56
2023-04-18T06:45:18.741Z,99507.28
2023-04-18T06:47:47.759Z,99528.69
2023-04-18T06:50:15.950Z,99511.66
2023-04-18T06:52:45.674Z,99522.88
2023-04-18T06:55:14.176Z,99519.59
2023-04-18T06:57:43.367Z,99520.00
2023-04-18T07:00:12.134Z,99525.38
2023-04-18T07:02:40.332Z,99522.03
2023-04-18T07:05:08.877Z,99525.16
2023-04-18T07:07:36.846Z,99531.19
2023-04-18T07:10:09.655Z,99520.78
2023-04-18T07:12:37.649Z,99532.00
2023-04-18T07:15:06.246Z,99528.63
2023-04-18T07:17:34.209Z,99534.47
2023-04-18T07:20:02.187Z,99531.22
2023-04-18T07:22:30.138Z,99530.34
2023-04-18T07:24:58.096Z,99527.81
2023-04-18T07:27:27.460Z,99534.03
2023-04-18T07:29:55.792Z,99533.56
2023-04-18T07:32:24.132Z,99526.00
2023-04-18T07:34:52.902Z,99532.56
2023-04-18T07:37:21.490Z,99528.28
2023-04-18T07:39:49.547Z,99533.84
2023-04-18T07:42:17.520Z,99533.47
2023-04-18T07:44:47.061Z,99531.13
2023-04-18T07:47:15.010Z,99534.91
2023-04-18T07:49:42.984Z,99539.25
2023-04-18T07:52:10.901Z,99531.25
2023-04-18T07:54:39.147Z,99537.94
2023-04-18T07:57:07.091Z,99542.91
2023-04-18T07:59:35.061Z,99544.94
2023-04-18T08:02:04.512Z,99545.38
2023-04-18T08:04:33.172Z,99546.59
2023-04-18T08:07:01.479Z,99546.00
2023-04-18T08:09:29.475Z,99542.50
2023-04-18T08:11:57.984Z,99546.84
2023-04-18T08:14:26.005Z,99550.22
2023-04-18T08:16:53.953Z,99546.78
2023-04-18T08:19:24.326Z,99552.28
2023-04-18T08:21:52.303Z,99547.59
2023-04-18T08:24:20.238Z,99542.56
2023-04-18T08:26:48.195Z,99546.63
2023-04-18T08:29:16.202Z,99552.41
2023-04-18T08:31:44.247Z,99557.41
2023-04-18T08:34:12.243Z,99556.97
2023-04-18T08:36:41.603Z,99555.47
2023-04-18T08:39:10.245Z,99551.41
2023-04-18T08:41:38.556Z,99542.78
2023-04-18T08:44:06.705Z,99550.94
2023-04-18T08:46:35.931Z,99548.88
2023-04-18T08:49:04.824Z,99559.78
2023-04-18T08:51:34.044Z,99556.00
2023-04-18T08:54:04.567Z,99549.56
2023-04-18T08:56:32.599Z,99546.38
2023-04-18T08:59:00.826Z,99544.19
2023-04-18T09:02:01.707Z,99544.47
2023-04-18T09:04:37.304Z,99550.22
2023-04-18T09:07:05.734Z,99551.13
2023-04-18T09:09:45.696Z,99546.75
2023-04-18T09:12:15.372Z,99545.22
2023-04-18T09:14:53.526Z,99555.34
2023-04-18T09:17:32.971Z,99548.50
2023-04-18T09:20:01.218Z,99547.00
2023-04-18T09:22:46.299Z,99549.88
2023-04-18T09:25:24.935Z,99549.38
2023-04-18T09:27:53.215Z,99549.78
2023-04-18T09:30:32.094Z,99558.50
2023-04-18T09:33:00.657Z,99553.75
2023-04-18T09:35:28.678Z,99552.91
2023-04-18T09:37:56.669Z,99549.81
2023-04-18T09:40:26.029Z,99553.69
2023-04-18T09:42:54.380Z,99547.41
2023-04-18T09:45:22.682Z,99545.41
2023-04-18T09:47:50.782Z,99553.06
2023-04-18T09:50:20.656Z,99548.50
2023-04-18T09:52:49.304Z,99549.78
2023-04-18T09:55:18.010Z,99537.97
2023-04-18T09:57:48.448Z,99548.38
2023-04-18T10:00:20.520Z,99548.56
2023-04-18T10:02:53.502Z,99543.56
2023-04-18T10:05:22.621Z,99537.22
2023-04-18T10:07:50.916Z,99539.78
2023-04-18T10:10:18.896Z,99539.50
2023-04-18T10:12:50.617Z,99535.44
2023-04-18T10:15:18.981Z,99547.25
2023-04-18T10:18:02.647Z,99550.91
2023-04-18T10:20:33.586Z,99545.66
2023-04-18T10:23:01.607Z,99550.59
2023-04-18T10:25:51.536Z,99546.31
2023-04-18T10:28:21.465Z,99542.09
2023-04-18T10:30:57.083Z,99539.22
2023-04-18T10:33:31.148Z,99542.91
2023-04-18T10:36:05.206Z,99544.88
2023-04-18T10:38:33.766Z,99543.75
2023-04-18T10:41:18.344Z,99549.59
2023-04-18T10:44:18.558Z,99560.41
2023-04-18T10:47:19.924Z,99554.94
2023-04-18T10:49:58.356Z,99551.50
2023-04-18T10:52:26.506Z,99551.56
2023-04-18T10:54:58.445Z,99557.16
2023-04-18T10:57:27.165Z,99561.66
2023-04-18T10:59:56.505Z,99568.16
2023-04-18T11:02:25.806Z,99562.81
2023-04-18T11:04:54.505Z,99580.03
2023-04-18T11:07:33.460Z,99584.66
2023-04-18T11:10:01.468Z,99587.44
2023-04-18T11:12:31.362Z,99586.22
2023-04-18T11:15:01.383Z,99595.00
2023-04-18T11:17:32.381Z,99601.47
2023-04-18T11:20:05.887Z,99603.13
2023-04-18T11:22:33.847Z,99602.91
2023-04-18T11:25:02.016Z,99588.75
2023-04-18T11:27:30.666Z,99586.22
2023-04-18T11:29:59.981Z,99582.84
2023-04-18T11:32:28.039Z,99574.97
2023-04-18T11:34:56.201Z,99568.81
2023-04-18T11:37:24.112Z,99561.84
2023-04-18T11:39:53.590Z,99552.53
2023-04-18T11:42:21.502Z,99557.75
2023-04-18T11:44:49.457Z,99555.75
2023-04-18T11:47:25.672Z,99561.69
2023-04-18T11:49:57.567Z,99561.03
2023-04-18T11:52:26.044Z,99559.44
2023-04-18T11:54:54.026Z,99566.97
2023-04-18T11:57:23.656Z,99566.13
2023-04-18T11:59:55.511Z,99581.53
2023-04-18T12:02:25.871Z,99571.97
2023-04-18T12:04:55.246Z,99578.19
2023-04-18T12:07:34.846Z,99586.00
2023-04-18T12:10:03.046Z,99587.09
2023-04-18T12:12:31.142Z,99582.16
2023-04-18T12:15:03.474Z,99590.84
2023-04-18T12:17:33.103Z,99602.41
2023-04-18T12:20:05.081Z,99587.03
2023-04-18T12:22:40.450Z,99599.38
2023-04-18T12:25:14.091Z,99592.31
2023-04-18T12:27:49.506Z,99579.91
2023-04-18T12:30:20.046Z,99574.31
2023-04-18T12:32:50.198Z,99559.66
2023-04-18T12:35:18.970Z,99550.56
2023-04-18T12:37:47.603Z,99548.72
2023-04-18T12:40:15.609Z,99551.28
2023-04-18T12:42:43.708Z,99559.84
2023-04-18T12:45:12.404Z,99550.31
2023-04-18T12:47:40.437Z,99552.94
2023-04-18T12:50:11.584Z,99546.06
2023-04-18T12:52:40.217Z,99540.72
2023-04-18T12:55:09.135Z,99535.78
2023-04-18T12:57:37.116Z,99540.78
2023-04-18T13:00:09.705Z,99533.69
2023-04-18T13:02:39.040Z,99531.22
2023-04-18T13:05:09.538Z,99536.81
2023-04-18T13:07:40.434Z,99531.44
2023-04-18T13:10:09.677Z,99539.50
2023-04-18T13:12:37.667Z,99531.59
2023-04-18T13:15:06.965Z,99529.06
2023-04-18T13:17:36.630Z,99535.69
2023-04-18T13:20:06.355Z,99523.09
2023-04-18T13:22:35.717Z,99515.13
2023-04-18T13:25:04.031Z,99507.19
2023-04-18T13:27:31.968Z,99508.00
2023-04-18T13:29:59.890Z,99503.34
2023-04-18T13:32:28.015Z,99507.44
2023-04-18T13:34:56.417Z,99506.72
2023-04-18T13:37:24.455Z,99506.84
2023-04-18T13:39:53.804Z,99495.84
2023-04-18T13:42:21.747Z,99501.88
2023-04-18T13:44:50.195Z,99504.47
2023-04-18T13:47:18.159Z,99499.09
2023-04-18T13:49:46.193Z,99513.47
2023-04-18T13:52:14.179Z,99518.28
2023-04-18T13:54:42.387Z,99517.66
2023-04-18T13:57:12.443Z,99517.69
2023-04-18T13:59:40.705Z,99522.91
2023-04-18T14:02:08.819Z,99510.00
2023-04-18T14:04:37.061Z,99519.16
2023-04-18T14:07:06.336Z,99515.53
2023-04-18T14:09:34.425Z,99520.94
2023-04-18T14:12:02.376Z,99529.78
2023-04-18T14:14:31.716Z,99532.72
2023-04-18T14:16:59.713Z,99540.13
2023-04-18T14:19:28.029Z,99531.88
2023-04-18T14:21:56.080Z,99535.44
2023-04-18T14:24:24.062Z,99529.44
2023-04-18T14:26:52.091Z,99536.31
2023-04-18T14:29:20.047Z,99536.75
2023-04-18T14:31:49.401Z,99540.97
2023-04-18T14:34:17.344Z,99532.06
2023-04-18T14:36:45.408Z,99534.13
2023-04-18T14:39:13.829Z,99525.41
2023-04-18T14:41:42.021Z,99524.97
2023-04-18T14:44:10.007Z,99524.97
2023-04-18T14:46:37.944Z,99511.03
2023-04-18T14:49:07.239Z,99507.09
2023-04-18T14:51:35.160Z,99504.56
2023-04-18T14:54:03.137Z,99509.53
2023-04-18T14:56:31.171Z,99502.06
2023-04-18T14:58:59.077Z,99507.06
2023-04-18T15:01:27.189Z,99508.31
2023-04-18T15:03:55.484Z,99506.22
2023-04-18T15:06:24.866Z,99504.13
2023-04-18T15:08:53.460Z,99514.13
2023-04-18T15:11:21.409Z,99517.88
2023-04-18T15:13:50.173Z,99520.78
2023-04-18T15:16:18.265Z,99520.78
2023-04-18T15:18:46.273Z,99518.69
2023-04-18T15:21:14.203Z,99520.41
2023-04-18T15:23:43.470Z,99517.03
2023-04-18T15:26:11.479Z,99516.97
2023-04-18T15:28:39.429Z,99510.78
2023-04-18T15:31:07.671Z,99514.34
2023-04-18T15:33:35.656Z,99515.16
2023-04-18T15:36:03.563Z,99501.16
2023-04-18T15:38:32.996Z,99507.41
2023-04-18T15:41:02.681Z,99499.28
2023-04-18T15:43:30.662Z,99494.91
2023-04-18T15:45:58.688Z,99502.00
2023-04-18T15:48:28.631Z,99498.66
2023-04-18T15:50:56.773Z,99494.53
2023-04-18T15:53:24.707Z,99498.69
2023-04-18T15:55:53.852Z,99497.03
2023-04-18T15:58:24.032Z,99497.47
2023-04-18T16:00:52.173Z,99496.25
2023-04-18T16:03:20.185Z,99494.59
2023-04-18T16:05:48.600Z,99491.28
2023-04-18T16:08:16.547Z,99502.94
2023-04-18T16:10:44.683Z,99502.34
2023-04-18T16:13:12.649Z,99507.50
2023-04-18T16:15:42.891Z,99507.50
2023-04-18T16:18:10.925Z,99511.69
2023-04-18T16:20:38.892Z,99507.09
2023-04-18T16:23:06.805Z,99510.63
2023-04-18T16:25:34.746Z,99512.06
2023-04-18T16:28:02.698Z,99517.09
2023-04-18T16:30:30.674Z,99513.75
2023-04-18T16:33:00.064Z,99516.84
2023-04-18T16:35:28.426Z,99508.75
2023-04-18T16:37:56.365Z,99521.44
2023-04-18T16:40:26.413Z,99516.25
2023-04-18T16:42:54.406Z,99516.44
2023-04-18T16:45:22.464Z,99482.97
2023-04-18T16:47:50.452Z,99515.81
2023-04-18T16:50:19.977Z,99519.78
2023-04-18T16:52:47.971Z,99521.44
2023-04-18T16:55:16.032Z,99515.84
2023-04-18T16:57:43.999Z,99522.09
2023-04-18T17:00:13.787Z,99519.78
2023-04-18T17:02:43.319Z,99528.28
2023-04-18T17:05:12.164Z,99518.72
2023-04-18T17:07:41.510Z,99533.72
2023-04-18T17:10:10.793Z,99522.28
2023-04-18T17:12:38.713Z,99526.63
2023-04-18T17:15:07.558Z,99532.47
2023-04-18T17:17:35.909Z,99530.59
2023-04-18T17:20:06.997Z,99524.13
2023-04-18T17:22:35.597Z,99535.16
2023-04-18T17:25:05.280Z,99532.03
2023-04-18T17:27:33.216Z,99534.53
2023-04-18T17:30:01.159Z,99531.59
2023-04-18T17:32:29.141Z,99538.25
2023-04-18T17:34:57.291Z,99539.06
2023-04-18T17:37:25.242Z,99532.44
2023-04-18T17:39:54.613Z,99505.81
2023-04-18T17:42:23.965Z,99536.59
2023-04-18T17:44:51.929Z,99543.88
2023-04-18T17:47:19.935Z,99546.19
2023-04-18T17:49:47.921Z,99551.16
2023-04-18T17:52:15.964Z,99549.47
2023-04-18T17:54:43.931Z,99551.56
2023-04-18T17:57:12.158Z,99541.97
2023-04-18T17:59:41.512Z,99541.97
2023-04-18T18:02:11.745Z,99541.13
2023-04-18T18:04:39.951Z,99549.88
2023-04-18T18:07:08.170Z,99547.56
2023-04-18T18:09:36.129Z,99542.78
2023-04-18T18:12:04.150Z,99546.94
2023-04-18T18:14:32.074Z,99543.38
2023-04-18T18:17:01.420Z,99537.38
2023-04-18T18:19:29.400Z,99548.19
2023-04-18T18:21:57.350Z,99541.13
2023-04-18T18:24:26.268Z,99546.47
2023-04-18T18:26:54.253Z,99541.63
2023-04-18T18:29:22.216Z,99539.72
2023-04-18T18:31:50.479Z,99542.66
2023-04-18T18:34:20.027Z,99544.72
2023-04-18T18:36:48.344Z,99533.47
2023-04-18T18:39:16.679Z,99540.97
2023-04-18T18:41:44.725Z,99540.94
2023-04-18T18:44:13.076Z,99538.41
2023-04-18T18:46:42.711Z,99538.81
2023-04-18T18:49:11.227Z,99537.53
2023-04-18T18:51:40.978Z,99542.06
2023-04-18T18:54:08.967Z,99540.00
2023-04-18T18:56:38.864Z,99533.75
2023-04-18T18:59:07.170Z,99534.16
2023-04-18T19:01:35.152Z,99535.38
2023-04-18T19:04:03.212Z,99537.66
2023-04-18T19:06:31.570Z,99539.50
2023-04-18T19:09:00.924Z,99534.13
2023-04-18T19:11:29.299Z,99529.50
2023-04-18T19:13:57.224Z,99535.66
2023-04-18T19:16:25.337Z,99529.47
2023-04-18T19:18:53.339Z,99523.84
2023-04-18T19:21:21.306Z,99528.97
2023-04-18T19:23:49.213Z,99523.41
2023-04-18T19:26:18.663Z,99526.06
2023-04-18T19:28:46.729Z,99523.09
2023-04-18T19:31:14.710Z,99519.00
2023-04-18T19:33:42.646Z,99522.72
2023-04-18T19:36:10.561Z,99531.84
2023-04-18T19:38:38.535Z,99531.47
2023-04-18T19:41:06.506Z,99530.16
2023-04-18T19:43:35.793Z,99520.56
2023-04-18T19:46:03.707Z,99524.69
2023-04-18T19:48:31.661Z,99525.72
2023-04-18T19:50:59.578Z,99524.06
2023-04-18T19:53:27.579Z,99527.81
2023-04-18T19:55:55.926Z,99530.91
2023-04-18T19:58:38.788Z,99536.69
2023-04-18T20:01:07.631Z,99530.91
2023-04-18T20:03:35.746Z,99514.97
2023-04-18T20:06:05.501Z,99518.50
2023-04-18T20:08:33.457Z,99522.69
2023-04-18T20:11:01.730Z,99522.03
2023-04-18T20:13:29.731Z,99525.38
2023-04-18T20:15:59.401Z,99527.81
2023-04-18T20:18:27.431Z,99527.44
2023-04-18T20:20:55.385Z,99533.03
2023-04-18T20:23:23.308Z,99524.44
2023-04-18T20:25:51.200Z,99525.91
2023-04-18T20:28:19.114Z,99520.22
2023-04-18T20:30:48.073Z,99515.25
2023-04-18T20:33:17.469Z,99519.97
2023-04-18T20:35:46.776Z,99519.03
2023-04-18T20:38:15.012Z,99526.25
2023-04-18T20:40:44.996Z,99522.56
2023-04-18T20:43:17.404Z,99531.53
2023-04-18T20:45:46.117Z,99526.97
2023-04-18T20:48:14.082Z,99530.25
2023-04-18T20:50:44.551Z,99537.31
2023-04-18T20:53:12.463Z,99543.13
2023-04-18T20:55:40.432Z,99534.69
2023-04-18T20:58:08.344Z,99533.66
2023-04-18T21:00:36.272Z,99530.34
2023-04-18T21:03:04.349Z,99527.44
2023-04-18T21:05:33.298Z,99521.63
2023-04-18T21:08:02.613Z,99509.84
2023-04-18T21:10:30.833Z,99518.25
2023-04-18T21:12:58.755Z,99525.38
2023-04-18T21:15:26.721Z,99522.41
2023-04-18T21:17:54.725Z,99533.88
2023-04-18T21:20:22.827Z,99525.22
2023-04-18T21:22:50.783Z,99534.00
2023-04-18T21:25:21.356Z,99534.31
2023-04-18T21:27:50.623Z,99525.97
2023-04-18T21:30:18.748Z,99521.44
2023-04-18T21:32:47.091Z,99514.81
2023-04-18T21:35:16.107Z,99520.25
2023-04-18T21:37:45.070Z,99507.41
2023-04-18T21:40:13.409Z,99511.56
2023-04-18T21:42:42.683Z,99511.34
2023-04-18T21:45:11.967Z,99505.75
2023-04-18T21:47:39.939Z,99505.72
2023-04-18T21:50:09.335Z,99501.38
2023-04-18T21:52:37.300Z,99502.84
2023-04-18T21:55:06.204Z,99504.53
2023-04-18T21:57:34.188Z,99499.97
2023-04-18T22:00:03.833Z,99500.34
2023-04-18T22:05:17.863Z,99506.16
2023-04-18T22:07:54.983Z,99489.19
2023-04-18T22:10:25.955Z,99494.97
2023-04-18T22:12:54.644Z,99492.53
2023-04-18T22:15:24.016Z,99492.28
2023-04-18T22:17:52.089Z,99488.94
2023-04-18T22:20:20.123Z,99463.16
2023-04-18T22:22:48.136Z,99486.72
2023-04-18T22:25:16.258Z,99485.47
2023-04-18T22:27:45.176Z,99457.00
2023-04-18T22:30:14.652Z,99478.22
2023-04-18T22:32:43.985Z,99479.03
2023-04-18T22:35:11.932Z,99480.44
2023-04-18T22:37:39.901Z,99477.13
2023-04-18T22:40:09.762Z,99478.00
2023-04-18T22:42:38.729Z,99466.81
2023-04-18T22:45:07.923Z,99475.94
2023-04-18T22:47:35.889Z,99467.06
2023-04-18T22:50:06.307Z,99470.34
2023-04-18T22:52:34.229Z,99469.28
2023-04-18T22:55:02.732Z,99471.72
2023-04-18T22:57:30.801Z,99475.44
2023-04-18T22:59:58.804Z,99443.44
2023-04-18T23:02:26.977Z,99468.44
2023-04-18T23:04:58.420Z,99467.53
2023-04-18T23:07:27.746Z,99465.63
2023-04-18T23:09:55.717Z,99464.63
2023-04-18T23:12:23.648Z,99470.00
2023-04-18T23:14:51.548Z,99459.06
2023-04-18T23:17:19.491Z,99465.88
2023-04-18T23:19:47.470Z,99471.69
2023-04-18T23:22:15.428Z,99465.31
2023-04-18T23:24:44.743Z,99460.56
2023-04-18T23:27:12.658Z,99462.44
2023-04-18T23:29:40.580Z,99463.03
2023-04-18T23:32:08.533Z,99458.66
2023-04-18T23:34:36.466Z,99451.44
2023-04-18T23:37:04.391Z,99446.91
2023-04-18T23:39:32.299Z,99447.94
2023-04-18T23:42:01.589Z,99439.44
2023-04-18T23:44:29.543Z,99446.06
2023-04-18T23:46:57.544Z,99441.09
2023-04-18T23:49:27.604Z,99428.22
2023-04-18T23:51:55.547Z,99427.56
2023-04-18T23:54:23.485Z,99428.81
2023-04-18T23:56:51.441Z,99428.00
2023-04-18T23:59:20.770Z,99431.06
